createdAt,value
2022-09-07T00:00:11.599Z,15.98
2022-09-07T00:02:39.184Z,16.14
2022-09-07T00:05:07.620Z,16.00
2022-09-07T00:07:35.233Z,15.90
2022-09-07T00:10:04.127Z,15.89
2022-09-07T00:12:31.527Z,15.83
2022-09-07T00:14:58.911Z,15.88
2022-09-07T00:17:26.331Z,15.89
2022-09-07T00:19:55.286Z,16.05
2022-09-07T00:22:22.713Z,16.11
2022-09-07T00:24:50.108Z,15.92
2022-09-07T00:27:18.966Z,15.89
2022-09-07T00:29:46.581Z,15.85
2022-09-07T00:32:14.184Z,15.71
2022-09-07T00:34:41.626Z,15.71
2022-09-07T00:37:09.181Z,15.77
2022-09-07T00:39:37.373Z,15.68
2022-09-07T00:42:04.950Z,15.68
2022-09-07T00:45:07.088Z,15.67
2022-09-07T00:47:40.301Z,15.67
2022-09-07T00:50:13.517Z,15.61
2022-09-07T00:52:43.177Z,15.48
2022-09-07T00:55:15.781Z,15.53
2022-09-07T00:57:47.412Z,15.35
2022-09-07T01:00:16.493Z,15.41
2022-09-07T01:02:44.550Z,15.38
2022-09-07T01:05:22.574Z,15.51
2022-09-07T01:07:50.395Z,15.45
2022-09-07T01:10:18.500Z,15.56
2022-09-07T01:12:45.887Z,15.56
2022-09-07T01:15:13.360Z,15.57
2022-09-07T01:18:08.446Z,15.64
2022-09-07T01:20:52.410Z,15.48
2022-09-07T01:23:55.466Z,15.44
2022-09-07T01:26:53.998Z,15.66
2022-09-07T01:29:29.634Z,15.52
2022-09-07T01:32:06.057Z,15.66
2022-09-07T01:34:33.496Z,15.64
2022-09-07T01:37:08.176Z,15.57
2022-09-07T01:39:44.951Z,15.51
2022-09-07T01:42:15.836Z,15.56
2022-09-07T01:44:48.806Z,15.51
2022-09-07T01:47:19.745Z,15.56
2022-09-07T01:49:51.990Z,15.63
2022-09-07T01:52:26.430Z,15.57
2022-09-07T01:55:00.261Z,15.62
2022-09-07T01:57:34.094Z,15.54
2022-09-07T02:00:08.618Z,15.65
2022-09-07T02:02:41.797Z,15.64
2022-09-07T02:05:14.194Z,15.68
2022-09-07T02:07:46.839Z,15.79
2022-09-07T02:10:18.289Z,15.75
2022-09-07T02:12:51.796Z,15.77
2022-09-07T02:15:25.063Z,15.62
2022-09-07T02:17:58.702Z,15.62
2022-09-07T02:20:31.259Z,15.59
2022-09-07T02:23:01.182Z,15.67
2022-09-07T02:25:32.965Z,15.60
2022-09-07T02:28:07.278Z,15.58
2022-09-07T02:30:35.896Z,15.74
2022-09-07T02:33:03.644Z,15.76
2022-09-07T02:35:31.031Z,15.74
2022-09-07T02:38:01.340Z,15.65
2022-09-07T02:40:28.912Z,15.62
2022-09-07T02:42:58.686Z,15.63
2022-09-07T02:45:26.770Z,15.70
2022-09-07T02:48:10.482Z,15.67
2022-09-07T02:50:50.810Z,15.67
2022-09-07T02:53:35.048Z,15.83
2022-09-07T02:56:17.782Z,15.55
2022-09-07T02:58:50.360Z,15.49
2022-09-07T03:01:28.504Z,15.53
2022-09-07T03:04:07.565Z,15.39
2022-09-07T03:06:40.713Z,15.35
2022-09-07T03:09:13.504Z,15.37
2022-09-07T03:11:40.905Z,15.49
2022-09-07T03:14:13.494Z,15.44
2022-09-07T03:16:41.049Z,15.33
2022-09-07T03:19:09.890Z,15.42
2022-09-07T03:21:37.313Z,15.32
2022-09-07T03:24:05.334Z,15.45
2022-09-07T03:26:32.816Z,15.45
2022-09-07T03:29:00.863Z,15.43
2022-09-07T03:31:28.295Z,15.32
2022-09-07T03:33:55.797Z,15.46
2022-09-07T03:36:24.609Z,15.40
2022-09-07T03:38:52.022Z,15.32
2022-09-07T03:41:19.406Z,15.28
2022-09-07T03:43:46.798Z,15.38
2022-09-07T03:46:18.022Z,15.39
2022-09-07T03:48:46.362Z,15.28
2022-09-07T03:51:15.586Z,15.32
2022-09-07T03:53:46.963Z,15.44
2022-09-07T03:56:16.121Z,15.28
2022-09-07T03:58:43.542Z,15.30
2022-09-07T04:01:13.059Z,15.37
2022-09-07T04:03:40.718Z,15.23
2022-09-07T04:06:08.322Z,15.30
2022-09-07T04:08:37.662Z,15.26
2022-09-07T04:11:08.087Z,15.25
2022-09-07T04:13:37.127Z,15.34
2022-09-07T04:16:11.538Z,15.36
2022-09-07T04:18:39.004Z,15.35
2022-09-07T04:21:06.716Z,15.43
2022-09-07T04:23:34.446Z,15.42
2022-09-07T04:26:01.864Z,15.34
2022-09-07T04:28:30.625Z,15.35
2022-09-07T04:31:01.303Z,15.37
2022-09-07T04:33:28.838Z,15.39
2022-09-07T04:35:56.206Z,15.44
2022-09-07T04:38:23.605Z,15.52
2022-09-07T04:40:50.998Z,15.41
2022-09-07T04:43:18.375Z,15.39
2022-09-07T04:45:47.127Z,15.52
2022-09-07T04:48:14.558Z,15.66
2022-09-07T04:50:41.914Z,15.67
2022-09-07T04:53:09.531Z,15.89
2022-09-07T04:55:37.293Z,15.94
2022-09-07T04:58:04.768Z,15.89
2022-09-07T05:00:32.930Z,16.05
2022-09-07T05:03:01.643Z,16.07
2022-09-07T05:05:29.057Z,16.11
2022-09-07T05:07:56.470Z,16.09
2022-09-07T05:10:24.069Z,16.00
2022-09-07T05:12:52.328Z,16.08
2022-09-07T05:15:19.779Z,16.16
2022-09-07T05:17:47.205Z,16.27
2022-09-07T05:20:20.047Z,16.38
2022-09-07T05:22:47.751Z,16.37
2022-09-07T05:25:15.363Z,16.52
2022-09-07T05:27:42.749Z,16.64
2022-09-07T05:32:58.830Z,16.86
2022-09-07T05:35:27.534Z,16.81
2022-09-07T05:37:54.907Z,16.80
2022-09-07T05:40:22.595Z,16.78
2022-09-07T05:42:49.979Z,16.80
2022-09-07T05:45:17.913Z,16.92
2022-09-07T05:47:45.297Z,16.95
2022-09-07T05:50:12.672Z,16.97
2022-09-07T05:52:41.354Z,17.17
2022-09-07T05:55:28.770Z,17.39
2022-09-07T05:57:57.456Z,17.41
2022-09-07T06:00:24.867Z,17.46
2022-09-07T06:02:52.268Z,17.51
2022-09-07T06:05:19.680Z,17.68
2022-09-07T06:07:49.052Z,17.94
2022-09-07T06:13:04.469Z,18.52
2022-09-07T06:15:32.890Z,18.67
2022-09-07T06:18:00.395Z,18.74
2022-09-07T06:20:27.841Z,18.87
2022-09-07T06:22:56.629Z,18.96
2022-09-07T06:25:24.026Z,19.13
2022-09-07T06:27:52.053Z,19.17
2022-09-07T06:30:19.465Z,19.22
2022-09-07T06:32:46.890Z,19.14
2022-09-07T06:35:15.486Z,19.22
2022-09-07T06:37:43.754Z,19.22
2022-09-07T06:40:12.934Z,19.18
2022-09-07T06:42:40.608Z,19.23
2022-09-07T06:45:09.997Z,19.26
2022-09-07T06:47:37.566Z,19.34
2022-09-07T06:50:05.207Z,19.53
2022-09-07T06:55:21.279Z,19.37
2022-09-07T06:57:48.671Z,19.35
2022-09-07T07:00:16.705Z,19.34
2022-09-07T07:02:44.089Z,19.47
2022-09-07T07:05:11.520Z,19.59
2022-09-07T07:07:38.987Z,19.76
2022-09-07T07:10:07.127Z,19.90
2022-09-07T07:15:02.128Z,20.18
2022-09-07T07:17:29.541Z,20.41
2022-09-07T07:19:56.915Z,20.37
2022-09-07T07:22:45.603Z,20.37
2022-09-07T07:25:11.824Z,20.44
2022-09-07T07:27:40.550Z,20.60
2022-09-07T07:30:08.912Z,20.67
2022-09-07T07:32:38.363Z,20.67
2022-09-07T07:35:06.651Z,20.83
2022-09-07T07:37:34.330Z,21.11
2022-09-07T07:40:19.181Z,21.29
2022-09-07T07:42:50.339Z,21.28
2022-09-07T07:48:05.484Z,21.50
2022-09-07T07:50:33.269Z,21.45
2022-09-07T07:55:48.856Z,21.49
2022-09-07T07:58:17.879Z,21.78
2022-09-07T08:01:00.722Z,21.86
2022-09-07T08:03:28.664Z,22.14
2022-09-07T08:05:56.687Z,22.24
2022-09-07T08:08:28.173Z,22.16
2022-09-07T08:10:55.541Z,22.24
2022-09-07T08:13:24.313Z,22.32
2022-09-07T08:15:51.738Z,22.40
2022-09-07T08:18:19.126Z,22.46
2022-09-07T08:20:46.472Z,22.53
2022-09-07T08:23:15.234Z,22.82
2022-09-07T08:25:50.951Z,23.14
2022-09-07T08:28:18.343Z,23.31
2022-09-07T08:30:47.096Z,23.37
2022-09-07T08:33:14.925Z,23.29
2022-09-07T08:35:46.174Z,23.35
2022-09-07T08:38:14.605Z,23.65
2022-09-07T08:40:44.329Z,23.76
2022-09-07T08:43:24.182Z,23.90
2022-09-07T08:45:57.618Z,24.12
2022-09-07T08:48:32.995Z,24.32
2022-09-07T08:51:06.168Z,24.35
2022-09-07T08:53:36.900Z,24.49
2022-09-07T08:56:09.585Z,24.30
2022-09-07T08:58:49.240Z,24.63
2022-09-07T09:01:36.539Z,24.84
2022-09-07T09:04:22.210Z,25.12
2022-09-07T09:07:03.489Z,25.07
2022-09-07T09:09:45.436Z,25.18
2022-09-07T09:12:22.341Z,24.73
2022-09-07T09:15:05.753Z,24.86
2022-09-07T09:17:39.359Z,24.91
2022-09-07T09:20:19.693Z,25.05
2022-09-07T09:22:47.287Z,25.37
2022-09-07T09:25:20.183Z,25.69
2022-09-07T09:27:47.927Z,26.02
2022-09-07T09:30:21.997Z,25.95
2022-09-07T09:32:52.480Z,25.69
2022-09-07T09:35:28.320Z,25.77
2022-09-07T09:37:57.534Z,25.82
2022-09-07T09:40:27.798Z,25.94
2022-09-07T09:43:03.607Z,25.95
2022-09-07T09:48:32.073Z,26.24
2022-09-07T09:53:56.417Z,26.02
2022-09-07T09:56:36.640Z,25.82
2022-09-07T10:05:31.260Z,25.54
2022-09-07T10:07:58.772Z,25.47
2022-09-07T10:10:27.932Z,25.42
2022-09-07T10:12:56.367Z,25.33
2022-09-07T10:15:32.833Z,25.24
2022-09-07T10:18:04.491Z,25.49
2022-09-07T10:20:35.968Z,25.49
2022-09-07T10:23:04.623Z,25.56
2022-09-07T10:25:36.340Z,25.41
2022-09-07T10:28:07.498Z,25.28
2022-09-07T10:30:46.834Z,25.44
2022-09-07T10:33:20.652Z,25.46
2022-09-07T10:36:00.615Z,25.32
2022-09-07T10:38:33.476Z,25.14
2022-09-07T10:41:05.757Z,25.18
2022-09-07T10:43:43.155Z,25.02
2022-09-07T10:49:24.343Z,24.86
2022-09-07T10:52:01.263Z,24.82
2022-09-07T10:54:39.252Z,24.90
2022-09-07T10:57:27.924Z,25.00
2022-09-07T11:00:09.673Z,25.24
2022-09-07T11:06:03.292Z,25.57
2022-09-07T11:14:26.401Z,26.27
2022-09-07T11:17:01.034Z,26.54
2022-09-07T11:19:36.142Z,26.29
2022-09-07T11:22:14.835Z,26.23
2022-09-07T11:25:29.149Z,26.30
2022-09-07T11:27:42.467Z,26.18
2022-09-07T11:30:19.592Z,26.13
2022-09-07T11:32:54.128Z,26.19
2022-09-07T11:35:32.148Z,26.26
2022-09-07T11:38:03.785Z,26.10
2022-09-07T11:40:36.810Z,26.03
2022-09-07T11:43:11.546Z,26.01
2022-09-07T11:45:44.250Z,26.30
2022-09-07T11:48:19.797Z,26.44
2022-09-07T11:50:51.569Z,26.39
2022-09-07T11:53:23.073Z,26.32
2022-09-07T11:55:57.121Z,26.28
2022-09-07T11:58:51.542Z,26.37
2022-09-07T12:01:29.460Z,26.17
2022-09-07T12:04:26.134Z,26.04
2022-09-07T12:07:24.434Z,25.84
2022-09-07T12:10:13.618Z,25.95
2022-09-07T12:12:57.499Z,26.37
2022-09-07T12:15:37.293Z,26.69
2022-09-07T12:18:27.529Z,26.99
2022-09-07T12:20:54.987Z,26.88
2022-09-07T12:23:29.975Z,26.93
2022-09-07T12:26:39.517Z,26.67
2022-09-07T12:29:21.038Z,26.37
2022-09-07T12:31:59.813Z,26.36
2022-09-07T12:34:46.960Z,26.14
2022-09-07T12:37:37.628Z,25.92
2022-09-07T12:40:42.218Z,25.77
2022-09-07T12:43:46.537Z,25.68
2022-09-07T12:46:41.259Z,25.53
2022-09-07T12:49:20.563Z,25.39
2022-09-07T12:52:03.436Z,25.29
2022-09-07T12:54:42.221Z,25.01
2022-09-07T12:57:29.271Z,24.89
2022-09-07T13:00:06.704Z,24.85
2022-09-07T13:02:59.257Z,24.75
2022-09-07T13:05:44.020Z,24.58
2022-09-07T13:08:43.844Z,24.50
2022-09-07T13:11:26.382Z,24.44
2022-09-07T13:14:04.189Z,24.29
2022-09-07T13:19:56.579Z,24.08
2022-09-07T13:22:57.275Z,23.95
2022-09-07T13:25:46.307Z,23.84
2022-09-07T13:28:42.460Z,23.67
2022-09-07T13:31:34.248Z,23.34
2022-09-07T13:34:01.660Z,23.31
2022-09-07T13:36:41.360Z,23.58
2022-09-07T13:39:15.298Z,23.80
2022-09-07T13:41:48.323Z,23.96
2022-09-07T13:44:25.807Z,24.34
2022-09-07T13:47:03.514Z,24.80
2022-09-07T13:49:49.628Z,24.99
2022-09-07T13:52:24.427Z,25.30
2022-09-07T13:55:04.410Z,25.33
2022-09-07T13:57:40.083Z,25.41
2022-09-07T14:00:14.503Z,25.42
2022-09-07T14:02:42.504Z,25.50
2022-09-07T14:05:12.743Z,25.73
2022-09-07T14:07:46.241Z,25.64
2022-09-07T14:10:19.322Z,25.72
2022-09-07T14:12:49.891Z,25.50
2022-09-07T14:15:23.460Z,25.33
2022-09-07T14:18:02.697Z,25.12
2022-09-07T14:20:32.364Z,25.12
2022-09-07T14:23:00.353Z,25.18
2022-09-07T14:25:29.712Z,25.23
2022-09-07T14:27:58.644Z,25.36
2022-09-07T14:30:28.999Z,25.47
2022-09-07T14:32:58.715Z,25.49
2022-09-07T14:35:29.352Z,25.50
2022-09-07T14:38:04.157Z,25.69
2022-09-07T14:40:33.129Z,25.75
2022-09-07T14:43:00.508Z,25.92
2022-09-07T14:45:33.562Z,26.00
2022-09-07T14:48:01.432Z,26.24
2022-09-07T14:50:33.600Z,26.24
2022-09-07T14:56:01.845Z,25.95
2022-09-07T14:58:32.320Z,25.78
2022-09-07T15:04:00.557Z,25.87
2022-09-07T15:09:27.935Z,25.70
2022-09-07T15:12:12.332Z,25.75
2022-09-07T15:14:39.783Z,25.64
2022-09-07T15:19:55.015Z,25.59
2022-09-07T15:22:22.803Z,25.60
2022-09-07T15:24:50.766Z,25.61
2022-09-07T15:27:29.648Z,25.68
2022-09-07T15:29:57.210Z,26.03
2022-09-07T15:32:24.698Z,26.22
2022-09-07T15:34:52.075Z,26.51
2022-09-07T15:40:15.370Z,26.93
2022-09-07T15:43:00.387Z,26.62
2022-09-07T15:45:28.141Z,26.57
2022-09-07T15:47:56.329Z,26.54
2022-09-07T15:50:23.775Z,26.56
2022-09-07T15:52:51.193Z,26.51
2022-09-07T15:55:18.553Z,26.55
2022-09-07T15:57:51.253Z,26.25
2022-09-07T16:00:22.256Z,26.23
2022-09-07T16:03:06.451Z,26.14
2022-09-07T16:05:34.877Z,25.94
2022-09-07T16:10:54.296Z,25.65
2022-09-07T16:13:24.665Z,25.61
2022-09-07T16:15:52.234Z,25.67
2022-09-07T16:18:20.116Z,25.57
2022-09-07T16:20:52.472Z,25.69
2022-09-07T16:23:20.288Z,25.45
2022-09-07T16:25:58.066Z,25.29
2022-09-07T16:28:27.654Z,25.12
2022-09-07T16:30:56.310Z,24.97
2022-09-07T16:33:31.505Z,24.94
2022-09-07T16:36:07.127Z,24.79
2022-09-07T16:38:50.388Z,24.79
2022-09-07T16:41:20.490Z,24.68
2022-09-07T16:43:49.604Z,24.75
2022-09-07T16:46:18.783Z,24.60
2022-09-07T16:48:46.301Z,24.56
2022-09-07T16:51:15.436Z,24.35
2022-09-07T16:53:44.373Z,24.24
2022-09-07T16:56:13.681Z,24.10
2022-09-07T16:58:43.407Z,24.03
2022-09-07T17:01:14.993Z,23.80
2022-09-07T17:03:42.904Z,23.75
2022-09-07T17:06:12.283Z,23.75
2022-09-07T17:08:40.580Z,23.82
2022-09-07T17:11:10.127Z,23.65
2022-09-07T17:13:39.078Z,23.58
2022-09-07T17:16:08.058Z,23.47
2022-09-07T17:21:24.907Z,23.30
2022-09-07T17:23:56.165Z,23.36
2022-09-07T17:26:26.636Z,23.04
2022-09-07T17:29:00.357Z,23.14
2022-09-07T17:34:19.350Z,23.23
2022-09-07T17:36:46.688Z,23.16
2022-09-07T17:39:16.210Z,23.04
2022-09-07T17:41:44.540Z,23.15
2022-09-07T17:44:11.962Z,23.06
2022-09-07T17:46:39.650Z,22.90
2022-09-07T17:49:08.754Z,23.02
2022-09-07T17:51:37.565Z,23.01
2022-09-07T17:54:11.355Z,23.02
2022-09-07T17:56:40.238Z,23.16
2022-09-07T18:01:55.596Z,22.93
2022-09-07T18:04:23.625Z,22.68
2022-09-07T18:06:52.514Z,22.40
2022-09-07T18:09:20.226Z,22.67
2022-09-07T18:11:49.337Z,22.69
2022-09-07T18:14:17.435Z,22.62
2022-09-07T18:16:46.561Z,22.63
2022-09-07T18:19:14.915Z,22.61
2022-09-07T18:21:44.481Z,22.49
2022-09-07T18:24:17.457Z,22.15
2022-09-07T18:26:50.240Z,22.46
2022-09-07T18:29:28.826Z,22.43
2022-09-07T18:31:57.957Z,22.45
2022-09-07T18:34:25.690Z,22.55
2022-09-07T18:36:53.074Z,22.52
2022-09-07T18:39:21.729Z,22.34
2022-09-07T18:41:49.066Z,22.30
2022-09-07T18:47:03.772Z,22.04
2022-09-07T18:49:31.118Z,22.05
2022-09-07T18:54:47.110Z,22.25
2022-09-07T18:57:15.458Z,22.02
2022-09-07T18:59:42.932Z,21.79
2022-09-07T19:02:10.592Z,21.48
2022-09-07T19:07:29.609Z,21.71
2022-09-07T19:09:58.816Z,21.47
2022-09-07T19:12:26.415Z,21.33
2022-09-07T19:14:53.820Z,21.68
2022-09-07T19:17:21.171Z,21.75
2022-09-07T19:19:49.282Z,21.75
2022-09-07T19:22:16.623Z,21.58
2022-09-07T19:24:43.956Z,21.74
2022-09-07T19:27:12.613Z,21.70
2022-09-07T19:29:39.946Z,21.77
2022-09-07T19:32:08.013Z,21.62
2022-09-07T19:34:37.273Z,21.51
2022-09-07T19:37:06.211Z,21.42
2022-09-07T19:39:33.655Z,21.34
2022-09-07T19:42:01.387Z,21.30
2022-09-07T19:44:30.079Z,20.74
2022-09-07T19:46:57.496Z,20.48
2022-09-07T19:49:24.990Z,20.77
2022-09-07T19:51:52.354Z,20.73
2022-09-07T19:54:19.970Z,20.34
2022-09-07T19:56:47.337Z,20.25
2022-09-07T19:59:15.273Z,20.28
2022-09-07T20:01:46.333Z,20.39
2022-09-07T20:04:20.443Z,20.74
2022-09-07T20:06:49.909Z,20.50
2022-09-07T20:09:18.314Z,20.56
2022-09-07T20:11:46.901Z,20.57
2022-09-07T20:14:15.169Z,19.94
2022-09-07T20:16:43.978Z,19.82
2022-09-07T20:19:14.321Z,19.79
2022-09-07T20:21:42.004Z,20.05
2022-09-07T20:24:11.661Z,20.20
2022-09-07T20:26:39.039Z,20.42
2022-09-07T20:31:55.607Z,20.45
2022-09-07T20:34:22.974Z,20.15
2022-09-07T20:36:50.746Z,20.10
2022-09-07T20:39:18.164Z,20.03
2022-09-07T20:41:45.815Z,20.18
2022-09-07T20:44:13.335Z,20.09
2022-09-07T20:46:40.805Z,19.86
2022-09-07T20:49:09.626Z,19.93
2022-09-07T20:51:37.087Z,20.03
2022-09-07T20:54:04.745Z,19.99
2022-09-07T20:56:32.178Z,19.66
2022-09-07T20:59:02.000Z,19.83
2022-09-07T21:01:30.561Z,19.83
2022-09-07T21:04:00.426Z,19.78
2022-09-07T21:06:30.065Z,19.91
2022-09-07T21:08:57.891Z,19.76
2022-09-07T21:11:28.619Z,19.71
2022-09-07T21:13:57.044Z,19.77
2022-09-07T21:16:24.447Z,19.56
2022-09-07T21:18:54.374Z,19.41
2022-09-07T21:21:22.927Z,19.35
2022-09-07T21:23:56.630Z,19.30
2022-09-07T21:26:24.974Z,19.21
2022-09-07T21:28:56.913Z,19.32
2022-09-07T21:31:24.413Z,19.42
2022-09-07T21:33:55.331Z,19.63
2022-09-07T21:36:23.102Z,19.62
2022-09-07T21:38:52.323Z,19.74
2022-09-07T21:41:22.205Z,19.74
2022-09-07T21:43:49.670Z,19.77
2022-09-07T21:46:18.828Z,19.66
2022-09-07T21:48:47.309Z,19.50
2022-09-07T21:51:15.120Z,19.42
2022-09-07T21:53:42.586Z,19.61
2022-09-07T21:56:13.175Z,19.63
2022-09-07T21:58:41.108Z,19.34
2022-09-07T22:01:14.331Z,19.38
2022-09-07T22:03:41.865Z,19.31
2022-09-07T22:06:09.801Z,19.23
2022-09-07T22:08:39.266Z,19.16
2022-09-07T22:11:08.387Z,19.41
2022-09-07T22:13:37.818Z,19.47
2022-09-07T22:16:06.092Z,19.69
2022-09-07T22:18:34.566Z,19.77
2022-09-07T22:21:03.593Z,19.63
2022-09-07T22:23:32.007Z,19.73
2022-09-07T22:25:59.447Z,19.72
2022-09-07T22:28:27.113Z,19.48
2022-09-07T22:30:56.020Z,19.42
2022-09-07T22:33:23.771Z,19.41
2022-09-07T22:35:51.129Z,19.38
2022-09-07T22:38:18.505Z,19.21
2022-09-07T22:40:45.859Z,19.12
2022-09-07T22:43:13.199Z,18.92
2022-09-07T22:45:40.533Z,18.77
2022-09-07T22:48:09.189Z,18.72
2022-09-07T22:50:36.543Z,18.79
2022-09-07T22:53:03.898Z,18.91
2022-09-07T22:55:31.417Z,18.93
2022-09-07T22:58:02.068Z,19.02
2022-09-07T23:00:29.896Z,18.91
2022-09-07T23:02:57.229Z,18.84
2022-09-07T23:05:25.895Z,18.63
2022-09-07T23:07:53.249Z,18.41
2022-09-07T23:10:20.597Z,18.29
2022-09-07T23:12:47.965Z,18.34
2022-09-07T23:15:15.364Z,18.40
2022-09-07T23:17:42.714Z,18.53
2022-09-07T23:20:10.351Z,18.49
2022-09-07T23:22:39.112Z,18.55
2022-09-07T23:25:07.440Z,18.53
2022-09-07T23:27:34.821Z,18.51
2022-09-07T23:30:02.178Z,18.68
2022-09-07T23:32:29.632Z,18.61
2022-09-07T23:34:56.977Z,18.64
2022-09-07T23:37:24.379Z,18.61
2022-09-07T23:39:53.091Z,18.65
2022-09-07T23:42:20.454Z,18.45
2022-09-07T23:44:48.445Z,18.24
2022-09-07T23:47:16.052Z,18.19
2022-09-07T23:49:43.404Z,18.27
2022-09-07T23:52:10.749Z,18.27
2022-09-07T23:54:38.103Z,18.20
2022-09-07T23:57:06.855Z,18.04
2022-09-07T23:59:34.216Z,17.83
